This is the latest recevied weather packets stored in our database for station/object WMKP. If no packets are shown the sender has not sent any weather packets the latest 10 day(s).
| Time | Temp. | Humidity | Pressure | Rain* | Wind** | Luminosity | Snow |
|---|---|---|---|---|---|---|---|
| 1777995606 | 27.78° C | 83% | 1008 hPa | - | - | - | - |
| 1777995024 | 27.78° C | 83% | 1008 hPa | - | - | - | - |
| 1777988406 | 27.78° C | 83% | 1007 hPa | - | - | - | - |
| 1777986634 | 27.78° C | 83% | 1007 hPa | - | - | - | - |
| 1777984808 | 27.78° C | 83% | 1006 hPa | - | - | - | - |
| 1777983024 | 28.89° C | 79% | 1006 hPa | - | - | - | - |
| 1777981206 | 28.89° C | 79% | 1006 hPa | - | - | - | - |
| 1777979426 | 30° C | 74% | 1006 hPa | - | - | - | - |
| 1777977612 | 30° C | 74% | 1005 hPa | - | - | - | - |
| 1777975827 | 30° C | 70% | 1005 hPa | - | - | - | - |
| 1777974006 | 30.56° C | 62% | 1005 hPa | - | - | - | - |
| 1777972230 | 30.56° C | 70% | 1005 hPa | - | - | - | - |
| 1777970407 | 30.56° C | 66% | 1006 hPa | - | - | - | - |
| 1777968624 | 30.56° C | 70% | 1006 hPa | - | - | - | - |
| 1777966806 | 30° C | 74% | 1006 hPa | - | - | - | - |
| 1777965021 | 28.89° C | 74% | 1007 hPa | - | - | - | - |
| 1777963212 | 27.78° C | 83% | 1008 hPa | - | - | - | - |
| 1777961426 | 27.78° C | 83% | 1008 hPa | - | - | - | - |
| 1777959605 | 28.89° C | 79% | 1009 hPa | - | - | - | - |
| 1777957829 | 30° C | 74% | 1009 hPa | - | - | - | - |
| 1777956007 | 30° C | 74% | 1009 hPa | - | - | - | - |
| 1777954223 | 30° C | 79% | 1009 hPa | - | - | - | - |
| 1777943423 | 27.78° C | 78% | 1009 hPa | - | - | - | - |
| 1777939832 | 25.56° C | 88% | 1008 hPa | - | - | - | - |
| 1777932623 | 25.56° C | 88% | 1008 hPa | - | - | - | - |
* Rain since midnight (hover to see other rain measurements)
** Current wind speed in m/s (hover to see current wind gust speed)